Northeast, Maryland
Current Conditions -  °F | °C
As of 8:51 AM on Monday 24 Nov 2014 (Local Time) from KILG Reporting Station
Broken Clouds Broken Clouds  
Wind Chill: 67°   Ceiling: 2400
Heat Index: 67°   Visibility: 10mi
Dew Point: 62°   Wind: 18mph
Humidity: 84%   Direction: 210°SSW
Pressure: 29.69"   Gusts: 24mph
Location:  39.589°N, 75.9588°W
Report Text: KILG 241351Z 21016G21KT 10SM SCT019 BKN024 19/17 A2969 RMK AO2 SLP053 T01940167
Loading
Personal Weather Stations






























Interactive Weather Map New forecast layout! Learn more

10-Day Weather Forecast

Advertisements
Track Severe Weather on mobile